createdAt,value
2018-05-15T00:01:05.000Z,17.23
2018-05-15T00:03:34.588Z,17.23
2018-05-15T00:06:03.493Z,17.17
2018-05-15T00:08:33.702Z,17.08
2018-05-15T00:11:02.016Z,17.00
2018-05-15T00:13:30.605Z,16.94
2018-05-15T00:16:00.442Z,16.86
2018-05-15T00:18:28.800Z,16.51
2018-05-15T00:20:57.199Z,16.38
2018-05-15T00:23:26.487Z,16.27
2018-05-15T00:25:55.224Z,16.39
2018-05-15T00:28:23.616Z,16.40
2018-05-15T00:30:51.955Z,16.18
2018-05-15T00:33:22.342Z,16.43
2018-05-15T00:35:52.381Z,16.48
2018-05-15T00:38:20.725Z,16.51
2018-05-15T00:40:49.846Z,16.53
2018-05-15T00:43:19.151Z,16.58
2018-05-15T00:45:49.061Z,16.31
2018-05-15T00:48:18.742Z,16.47
2018-05-15T00:50:47.564Z,16.48
2018-05-15T00:53:16.733Z,16.43
2018-05-15T00:55:45.060Z,16.67
2018-05-15T00:58:15.319Z,16.58
2018-05-15T01:00:44.528Z,16.58
2018-05-15T01:03:13.200Z,16.30
2018-05-15T01:05:41.596Z,16.57
2018-05-15T01:08:10.841Z,16.60
2018-05-15T01:10:39.184Z,16.72
2018-05-15T01:13:07.549Z,16.64
2018-05-15T01:15:36.550Z,16.72
2018-05-15T01:18:05.141Z,16.54
2018-05-15T01:20:34.378Z,16.56
2018-05-15T01:23:03.012Z,16.42
2018-05-15T01:25:32.181Z,16.38
2018-05-15T01:28:01.506Z,16.27
2018-05-15T01:30:29.858Z,16.49
2018-05-15T01:32:58.497Z,16.37
2018-05-15T01:35:27.735Z,16.32
2018-05-15T01:37:56.139Z,16.35
2018-05-15T01:40:25.394Z,16.44
2018-05-15T01:42:55.514Z,16.17
2018-05-15T01:45:23.864Z,16.10
2018-05-15T01:47:52.298Z,16.21
2018-05-15T01:50:21.088Z,16.17
2018-05-15T01:52:49.441Z,16.05
2018-05-15T01:55:17.834Z,16.09
2018-05-15T01:57:46.252Z,16.16
2018-05-15T02:00:16.142Z,16.21
2018-05-15T02:02:46.423Z,16.05
2018-05-15T02:05:15.525Z,16.23
2018-05-15T02:07:43.856Z,16.06
2018-05-15T02:10:13.008Z,16.15
2018-05-15T02:12:41.385Z,16.07
2018-05-15T02:15:09.739Z,16.07
2018-05-15T02:17:39.034Z,15.99
2018-05-15T02:20:08.247Z,15.95
2018-05-15T02:22:37.708Z,15.98
2018-05-15T02:25:06.074Z,15.91
2018-05-15T02:27:35.186Z,15.89
2018-05-15T02:30:05.463Z,15.94
2018-05-15T02:32:34.538Z,15.72
2018-05-15T02:35:03.837Z,15.84
2018-05-15T02:37:32.625Z,15.91
2018-05-15T02:40:03.233Z,15.87
2018-05-15T02:42:32.999Z,15.72
2018-05-15T02:45:01.351Z,15.76
2018-05-15T02:47:29.724Z,15.88
2018-05-15T02:49:58.469Z,15.73
2018-05-15T02:52:28.542Z,15.74
2018-05-15T02:54:57.033Z,15.64
2018-05-15T02:57:26.785Z,15.74
2018-05-15T02:59:55.694Z,15.66
2018-05-15T03:02:24.132Z,15.70
2018-05-15T03:04:53.388Z,15.86
2018-05-15T03:07:21.753Z,15.82
2018-05-15T03:09:51.034Z,15.82
2018-05-15T03:12:19.716Z,15.78
2018-05-15T03:14:50.167Z,15.84
2018-05-15T03:17:20.306Z,15.79
2018-05-15T03:19:49.606Z,15.76
2018-05-15T03:22:18.899Z,15.78
2018-05-15T03:24:47.682Z,15.72
2018-05-15T03:27:17.774Z,15.76
2018-05-15T03:29:47.118Z,15.68
2018-05-15T03:32:16.430Z,15.48
2018-05-15T03:34:44.816Z,15.66
2018-05-15T03:37:13.231Z,15.41
2018-05-15T03:39:42.531Z,15.25
2018-05-15T03:42:11.395Z,15.20
2018-05-15T03:44:39.760Z,15.15
2018-05-15T03:47:08.098Z,15.25
2018-05-15T03:49:37.545Z,15.08
2018-05-15T03:52:05.878Z,15.19
2018-05-15T03:54:34.371Z,15.02
2018-05-15T03:57:03.817Z,15.27
2018-05-15T03:59:32.178Z,14.97
2018-05-15T04:02:15.217Z,15.15
2018-05-15T04:04:56.732Z,15.28
2018-05-15T04:07:37.733Z,15.53
2018-05-15T04:10:06.838Z,15.38
2018-05-15T04:12:35.177Z,15.39
2018-05-15T04:15:04.519Z,15.08
2018-05-15T04:17:32.944Z,15.05
2018-05-15T04:20:01.292Z,15.31
2018-05-15T04:22:30.550Z,15.00
2018-05-15T04:24:58.917Z,15.27
2018-05-15T04:27:27.287Z,15.24
2018-05-15T04:29:55.895Z,15.32
2018-05-15T04:32:24.276Z,15.30
2018-05-15T04:34:54.376Z,15.29
2018-05-15T04:37:22.724Z,15.43
2018-05-15T04:39:51.866Z,15.43
2018-05-15T04:42:20.235Z,15.52
2018-05-15T04:44:49.525Z,15.42
2018-05-15T04:47:18.391Z,15.45
2018-05-15T04:49:49.275Z,15.48
2018-05-15T04:52:18.120Z,15.49
2018-05-15T04:54:48.812Z,15.23
2018-05-15T04:57:18.569Z,15.43
2018-05-15T04:59:47.727Z,15.62
2018-05-15T05:02:16.141Z,15.48
2018-05-15T05:04:44.497Z,15.54
2018-05-15T05:07:12.826Z,15.55
2018-05-15T05:09:42.067Z,15.61
2018-05-15T05:12:12.040Z,15.53
2018-05-15T05:14:41.732Z,15.69
2018-05-15T05:17:10.192Z,15.54
2018-05-15T05:19:39.280Z,15.58
2018-05-15T05:22:07.641Z,15.61
2018-05-15T05:24:35.997Z,15.72
2018-05-15T05:27:05.317Z,15.76
2018-05-15T05:29:34.464Z,15.62
2018-05-15T05:32:04.630Z,15.67
2018-05-15T05:34:34.157Z,15.81
2018-05-15T05:37:03.601Z,15.81
2018-05-15T05:39:32.676Z,15.94
2018-05-15T05:42:03.126Z,15.81
2018-05-15T05:44:31.532Z,15.90
2018-05-15T05:47:01.333Z,15.77
2018-05-15T05:49:30.621Z,16.00
2018-05-15T05:51:59.295Z,16.09
2018-05-15T05:54:28.452Z,15.95
2018-05-15T05:56:57.713Z,16.25
2018-05-15T05:59:26.804Z,16.03
2018-05-15T06:01:56.197Z,16.18
2018-05-15T06:04:26.105Z,16.12
2018-05-15T06:06:55.446Z,16.34
2018-05-15T06:09:25.734Z,16.49
2018-05-15T06:11:55.568Z,16.56
2018-05-15T06:14:24.663Z,16.56
2018-05-15T06:16:53.935Z,16.58
2018-05-15T06:19:25.710Z,16.67
2018-05-15T06:21:55.797Z,16.51
2018-05-15T06:24:25.544Z,16.55
2018-05-15T06:26:53.963Z,16.71
2018-05-15T06:29:24.337Z,16.62
2018-05-15T06:31:53.317Z,16.59
2018-05-15T06:34:23.349Z,16.63
2018-05-15T06:36:52.070Z,16.82
2018-05-15T06:39:21.665Z,16.99
2018-05-15T06:41:52.084Z,17.24
2018-05-15T06:44:20.813Z,17.35
2018-05-15T06:46:53.364Z,17.35
2018-05-15T06:49:26.624Z,17.38
2018-05-15T06:51:56.037Z,17.09
2018-05-15T06:54:24.712Z,17.56
2018-05-15T06:56:53.899Z,17.59
2018-05-15T06:59:22.501Z,17.90
2018-05-15T07:01:52.740Z,18.04
2018-05-15T07:04:21.134Z,18.24
2018-05-15T07:06:49.779Z,18.26
2018-05-15T07:09:19.038Z,18.16
2018-05-15T07:11:48.948Z,18.26
2018-05-15T07:14:18.296Z,18.30
2018-05-15T07:16:47.446Z,18.10
2018-05-15T07:19:19.199Z,18.16
2018-05-15T07:21:50.398Z,18.24
2018-05-15T07:24:19.952Z,18.34
2018-05-15T07:26:48.857Z,18.35
2018-05-15T07:29:18.506Z,18.61
2018-05-15T07:31:46.877Z,18.38
2018-05-15T07:34:19.446Z,18.40
2018-05-15T07:36:50.320Z,18.58
2018-05-15T07:39:20.842Z,18.79
2018-05-15T07:41:49.268Z,18.68
2018-05-15T07:44:18.817Z,18.91
2018-05-15T07:46:48.615Z,18.88
2018-05-15T07:49:16.990Z,19.05
2018-05-15T07:51:45.439Z,19.31
2018-05-15T07:54:14.685Z,19.45
2018-05-15T07:56:43.848Z,19.72
2018-05-15T07:59:14.524Z,19.85
2018-05-15T08:01:45.900Z,19.96
2018-05-15T08:04:15.110Z,19.84
2018-05-15T08:06:44.515Z,19.70
2018-05-15T08:09:13.212Z,19.65
2018-05-15T08:11:42.819Z,20.17
2018-05-15T08:14:12.588Z,20.23
2018-05-15T08:16:40.981Z,20.21
2018-05-15T08:19:10.036Z,20.49
2018-05-15T08:21:39.420Z,20.46
2018-05-15T08:24:08.812Z,20.61
2018-05-15T08:26:37.217Z,20.47
2018-05-15T08:29:06.490Z,20.38
2018-05-15T08:31:35.789Z,20.65
2018-05-15T08:34:04.917Z,20.55
2018-05-15T08:36:33.316Z,20.55
2018-05-15T08:39:01.668Z,20.46
2018-05-15T08:41:32.010Z,20.27
2018-05-15T08:44:01.829Z,20.76
2018-05-15T08:46:30.678Z,20.64
2018-05-15T08:48:59.025Z,20.85
2018-05-15T08:51:27.907Z,20.76
2018-05-15T08:53:57.140Z,20.76
2018-05-15T08:56:27.045Z,20.61
2018-05-15T08:58:56.796Z,21.01
2018-05-15T09:01:25.159Z,21.14
2018-05-15T09:03:54.414Z,21.35
2018-05-15T09:06:23.074Z,21.74
2018-05-15T09:08:51.721Z,21.58
2018-05-15T09:11:20.940Z,21.33
2018-05-15T09:13:50.441Z,21.48
2018-05-15T09:16:20.208Z,21.36
2018-05-15T09:18:49.817Z,21.33
2018-05-15T09:21:18.258Z,21.27
2018-05-15T09:23:46.867Z,21.44
2018-05-15T09:26:15.261Z,22.10
2018-05-15T09:28:44.733Z,21.52
2018-05-15T09:31:13.822Z,21.04
2018-05-15T09:33:43.084Z,21.35
2018-05-15T09:36:11.706Z,21.92
2018-05-15T09:38:40.032Z,22.05
2018-05-15T09:41:08.832Z,21.98
2018-05-15T09:43:54.983Z,22.30
2018-05-15T09:46:23.969Z,22.49
2018-05-15T09:48:53.132Z,22.65
2018-05-15T09:51:21.960Z,22.43
2018-05-15T09:53:51.266Z,22.57
2018-05-15T09:56:19.637Z,22.69
2018-05-15T09:58:48.010Z,22.38
2018-05-15T10:01:17.166Z,22.88
2018-05-15T10:03:46.485Z,23.35
2018-05-15T10:06:15.741Z,23.05
2018-05-15T10:08:45.446Z,23.20
2018-05-15T10:11:15.325Z,22.71
2018-05-15T10:13:43.801Z,22.58
2018-05-15T10:16:12.159Z,23.13
2018-05-15T10:18:41.927Z,23.75
2018-05-15T10:21:10.322Z,23.69
2018-05-15T10:23:39.414Z,23.86
2018-05-15T10:26:08.006Z,23.94
2018-05-15T10:28:36.731Z,23.88
2018-05-15T10:31:05.080Z,23.57
2018-05-15T10:33:33.608Z,23.59
2018-05-15T10:36:02.214Z,24.14
2018-05-15T10:38:31.298Z,23.76
2018-05-15T10:40:59.651Z,23.95
2018-05-15T10:43:28.015Z,24.47
2018-05-15T10:45:57.500Z,24.50
2018-05-15T10:48:25.872Z,24.15
2018-05-15T10:50:54.229Z,24.01
2018-05-15T10:53:23.064Z,23.93
2018-05-15T10:55:51.520Z,24.19
2018-05-15T10:58:20.736Z,24.39
2018-05-15T11:00:49.474Z,24.49
2018-05-15T11:03:19.314Z,24.76
2018-05-15T11:05:48.531Z,25.18
2018-05-15T11:08:17.777Z,25.58
2018-05-15T11:10:46.489Z,25.14
2018-05-15T11:13:16.563Z,25.14
2018-05-15T11:15:49.162Z,25.58
2018-05-15T11:18:31.096Z,25.31
2018-05-15T11:21:12.806Z,25.25
2018-05-15T11:23:54.320Z,25.25
2018-05-15T11:26:23.803Z,25.86
2018-05-15T11:28:54.041Z,25.07
2018-05-15T11:31:22.786Z,25.56
2018-05-15T11:33:52.184Z,25.50
2018-05-15T11:36:21.279Z,25.55
2018-05-15T11:38:49.622Z,25.07
2018-05-15T11:41:18.774Z,25.21
2018-05-15T11:43:47.323Z,24.52
2018-05-15T11:46:16.601Z,24.33
2018-05-15T11:48:46.135Z,24.57
2018-05-15T11:51:14.528Z,24.35
2018-05-15T11:53:42.677Z,24.97
2018-05-15T11:56:11.029Z,25.05
2018-05-15T11:58:39.357Z,24.94
2018-05-15T12:01:07.744Z,25.09
2018-05-15T12:03:36.827Z,25.24
2018-05-15T12:06:05.192Z,24.69
2018-05-15T12:08:34.444Z,24.96
2018-05-15T12:11:02.807Z,24.59
2018-05-15T12:13:31.165Z,24.67
2018-05-15T12:15:59.552Z,24.64
2018-05-15T12:18:28.099Z,24.60
2018-05-15T12:20:57.001Z,24.74
2018-05-15T12:23:26.693Z,24.96
2018-05-15T12:25:55.049Z,25.31
2018-05-15T12:28:23.386Z,25.68
2018-05-15T12:30:51.751Z,25.21
2018-05-15T12:33:21.081Z,25.21
2018-05-15T12:35:49.519Z,24.76
2018-05-15T12:38:21.861Z,24.94
2018-05-15T12:40:50.188Z,24.99
2018-05-15T12:43:18.948Z,24.58
2018-05-15T12:45:47.923Z,24.21
2018-05-15T12:48:16.352Z,24.28
2018-05-15T12:50:45.482Z,24.60
2018-05-15T12:53:13.885Z,24.80
2018-05-15T12:55:42.217Z,24.89
2018-05-15T12:58:10.593Z,24.76
2018-05-15T13:00:38.945Z,24.14
2018-05-15T13:03:07.322Z,24.08
2018-05-15T13:05:36.049Z,23.90
2018-05-15T13:08:04.637Z,23.72
2018-05-15T13:10:34.282Z,23.65
2018-05-15T13:13:02.675Z,24.17
2018-05-15T13:15:31.021Z,24.32
2018-05-15T13:18:00.116Z,24.62
2018-05-15T13:20:28.496Z,25.22
2018-05-15T13:22:57.772Z,25.04
2018-05-15T13:25:26.103Z,25.19
2018-05-15T13:27:54.514Z,25.18
2018-05-15T13:30:23.135Z,24.69
2018-05-15T13:32:51.530Z,24.19
2018-05-15T13:35:21.616Z,23.90
2018-05-15T13:37:53.044Z,23.98
2018-05-15T13:40:21.407Z,23.77
2018-05-15T13:42:49.738Z,24.15
2018-05-15T13:45:18.154Z,23.99
2018-05-15T13:47:46.486Z,24.95
2018-05-15T13:50:19.693Z,24.79
2018-05-15T13:52:48.958Z,25.55
2018-05-15T13:55:17.320Z,26.10
2018-05-15T13:57:46.514Z,25.83
2018-05-15T14:00:15.200Z,26.72
2018-05-15T14:02:43.527Z,26.79
2018-05-15T14:05:11.895Z,26.82
2018-05-15T14:07:40.390Z,26.70
2018-05-15T14:10:09.745Z,27.54
2018-05-15T14:12:38.699Z,27.37
2018-05-15T14:15:07.061Z,27.10
2018-05-15T14:17:35.405Z,27.16
2018-05-15T14:20:03.763Z,26.48
2018-05-15T14:22:32.105Z,27.42
2018-05-15T14:25:00.462Z,27.61
2018-05-15T14:27:28.787Z,27.37
2018-05-15T14:29:57.974Z,27.41
2018-05-15T14:32:26.301Z,27.55
2018-05-15T14:34:54.672Z,26.47
2018-05-15T14:37:23.633Z,26.63
2018-05-15T14:39:51.997Z,26.17
2018-05-15T14:42:31.980Z,27.00
2018-05-15T14:45:00.333Z,27.21
2018-05-15T14:47:30.440Z,27.44
2018-05-15T14:49:58.842Z,27.21
2018-05-15T14:52:28.022Z,27.39
2018-05-15T14:54:56.368Z,26.55
2018-05-15T14:57:25.645Z,26.11
2018-05-15T14:59:54.840Z,25.93
2018-05-15T15:02:23.172Z,25.96
2018-05-15T15:04:52.465Z,26.50
2018-05-15T15:07:20.822Z,26.70
2018-05-15T15:09:49.197Z,26.08
2018-05-15T15:12:17.553Z,26.69
2018-05-15T15:14:45.884Z,26.37
2018-05-15T15:17:14.260Z,26.59
2018-05-15T15:19:43.873Z,26.61
2018-05-15T15:22:12.846Z,27.47
2018-05-15T15:24:41.177Z,27.42
2018-05-15T15:27:11.280Z,26.72
2018-05-15T15:29:39.653Z,26.79
2018-05-15T15:32:08.348Z,26.98
2018-05-15T15:34:37.290Z,26.67
2018-05-15T15:37:05.677Z,26.88
2018-05-15T15:39:34.246Z,26.55
2018-05-15T15:42:02.595Z,25.97
2018-05-15T15:44:30.969Z,25.96
2018-05-15T15:47:00.254Z,25.36
2018-05-15T15:49:28.588Z,25.74
2018-05-15T15:51:58.242Z,25.82
2018-05-15T15:54:27.407Z,25.87
2018-05-15T15:56:56.366Z,25.70
2018-05-15T15:59:24.768Z,25.37
2018-05-15T16:01:53.171Z,25.92
2018-05-15T16:04:21.779Z,25.19
2018-05-15T16:06:51.477Z,25.29
2018-05-15T16:09:22.112Z,24.60
2018-05-15T16:11:56.653Z,25.13
2018-05-15T16:14:26.706Z,25.67
2018-05-15T16:16:55.187Z,25.16
2018-05-15T16:19:23.888Z,25.73
2018-05-15T16:21:52.285Z,25.77
2018-05-15T16:24:20.621Z,25.39
2018-05-15T16:26:49.006Z,25.00
2018-05-15T16:29:17.328Z,24.73
2018-05-15T16:31:46.437Z,24.93
2018-05-15T16:34:14.771Z,24.82
2018-05-15T16:36:44.368Z,25.15
2018-05-15T16:39:12.762Z,24.75
2018-05-15T16:41:41.979Z,24.65
2018-05-15T16:44:10.808Z,24.76
2018-05-15T16:46:39.226Z,24.67
2018-05-15T16:49:08.366Z,24.46
2018-05-15T16:51:37.627Z,24.58
2018-05-15T16:54:05.999Z,24.74
2018-05-15T16:56:34.367Z,24.77
2018-05-15T16:59:02.734Z,24.67
2018-05-15T17:01:32.833Z,24.57
2018-05-15T17:04:02.965Z,24.66
2018-05-15T17:06:31.289Z,24.54
2018-05-15T17:08:59.943Z,24.61
2018-05-15T17:11:28.324Z,24.47
2018-05-15T17:13:57.580Z,23.47
2018-05-15T17:16:26.037Z,21.96
2018-05-15T17:18:55.226Z,21.04
2018-05-15T17:21:23.557Z,20.15
2018-05-15T17:23:51.921Z,19.11
2018-05-15T17:26:20.249Z,18.38
2018-05-15T17:28:49.443Z,18.20
2018-05-15T17:31:18.134Z,17.88
2018-05-15T17:33:46.633Z,17.56
2018-05-15T17:36:14.972Z,17.30
2018-05-15T17:38:43.363Z,17.35
2018-05-15T17:41:11.690Z,17.38
2018-05-15T17:43:40.862Z,17.54
2018-05-15T17:46:09.185Z,17.45
2018-05-15T17:48:37.724Z,17.61
2018-05-15T17:51:06.914Z,17.60
2018-05-15T17:53:35.384Z,17.45
2018-05-15T17:56:03.744Z,17.75
2018-05-15T17:58:32.887Z,17.85
2018-05-15T18:01:01.234Z,17.84
2018-05-15T18:03:30.367Z,17.93
2018-05-15T18:05:58.735Z,17.68
2018-05-15T18:08:27.161Z,17.68
2018-05-15T18:10:56.288Z,17.64
2018-05-15T18:13:24.641Z,17.60
2018-05-15T18:15:52.977Z,17.58
2018-05-15T18:18:21.329Z,17.74
2018-05-15T18:20:49.657Z,17.52
2018-05-15T18:23:18.927Z,17.68
2018-05-15T18:25:47.255Z,17.68
2018-05-15T18:28:17.012Z,17.77
2018-05-15T18:30:45.350Z,17.03
2018-05-15T18:33:14.630Z,17.20
2018-05-15T18:35:43.568Z,16.67
2018-05-15T18:38:12.694Z,17.01
2018-05-15T18:40:41.017Z,17.11
2018-05-15T18:43:10.721Z,17.05
2018-05-15T18:45:39.433Z,16.87
2018-05-15T18:48:07.806Z,16.61
2018-05-15T18:50:36.145Z,16.03
2018-05-15T18:53:05.052Z,16.71
2018-05-15T18:55:34.054Z,16.91
2018-05-15T18:58:02.451Z,16.54
2018-05-15T19:00:30.794Z,16.53
2018-05-15T19:03:00.457Z,16.56
2018-05-15T19:05:28.828Z,16.74
2018-05-15T19:07:58.034Z,16.79
2018-05-15T19:10:26.368Z,17.16
2018-05-15T19:12:54.987Z,17.30
2018-05-15T19:15:24.094Z,17.11
2018-05-15T19:17:52.893Z,17.04
2018-05-15T19:20:22.136Z,16.94
2018-05-15T19:22:50.487Z,16.84
2018-05-15T19:25:18.825Z,16.66
2018-05-15T19:27:47.214Z,16.44
2018-05-15T19:30:15.585Z,16.54
2018-05-15T19:32:44.984Z,16.43
2018-05-15T19:35:19.205Z,16.24
2018-05-15T19:37:47.949Z,16.30
2018-05-15T19:40:17.292Z,16.31
2018-05-15T19:42:46.441Z,16.50
2018-05-15T19:45:16.302Z,16.45
2018-05-15T19:47:44.910Z,16.64
2018-05-15T19:50:13.285Z,16.54
2018-05-15T19:52:41.651Z,16.44
2018-05-15T19:55:10.048Z,16.45
2018-05-15T19:57:38.382Z,16.39
2018-05-15T20:00:06.737Z,16.45
2018-05-15T20:02:35.150Z,15.85
2018-05-15T20:05:04.885Z,16.03
2018-05-15T20:07:33.511Z,16.18
2018-05-15T20:10:01.902Z,15.84
2018-05-15T20:12:30.273Z,15.24
2018-05-15T20:14:59.582Z,14.54
2018-05-15T20:17:27.916Z,14.96
2018-05-15T20:19:56.669Z,15.27
2018-05-15T20:22:24.981Z,15.49
2018-05-15T20:24:53.343Z,15.64
2018-05-15T20:27:21.721Z,15.85
2018-05-15T20:29:51.311Z,15.72
2018-05-15T20:32:19.894Z,15.10
2018-05-15T20:34:48.274Z,14.95
2018-05-15T20:37:16.626Z,15.04
2018-05-15T20:39:45.149Z,15.15
2018-05-15T20:42:13.510Z,15.21
2018-05-15T20:44:42.069Z,15.32
2018-05-15T20:47:10.835Z,15.31
2018-05-15T20:49:39.234Z,15.55
2018-05-15T20:52:08.356Z,15.71
2018-05-15T20:54:36.653Z,15.60
2018-05-15T20:57:05.848Z,15.69
2018-05-15T20:59:34.231Z,15.69
2018-05-15T21:02:02.617Z,15.59
2018-05-15T21:04:30.965Z,15.66
2018-05-15T21:06:59.288Z,15.85
2018-05-15T21:09:27.644Z,15.93
2018-05-15T21:11:56.774Z,15.68
2018-05-15T21:14:25.928Z,15.94
2018-05-15T21:16:54.332Z,15.98
2018-05-15T21:19:22.695Z,15.66
2018-05-15T21:21:51.351Z,15.67
2018-05-15T21:24:19.636Z,15.85
2018-05-15T21:26:47.972Z,15.62
2018-05-15T21:29:16.369Z,15.61
2018-05-15T21:31:44.701Z,15.44
2018-05-15T21:34:13.833Z,15.42
2018-05-15T21:36:42.761Z,15.31
2018-05-15T21:39:11.115Z,15.07
2018-05-15T21:41:39.443Z,15.40
2018-05-15T21:44:07.830Z,15.39
2018-05-15T21:46:36.162Z,15.45
2018-05-15T21:49:04.850Z,15.31
2018-05-15T21:51:34.091Z,15.35
2018-05-15T21:54:02.553Z,15.38
2018-05-15T21:56:30.882Z,15.33
2018-05-15T21:58:59.248Z,15.28
2018-05-15T22:01:27.979Z,15.23
2018-05-15T22:03:56.356Z,15.10
2018-05-15T22:06:24.915Z,15.19
2018-05-15T22:08:55.022Z,14.93
2018-05-15T22:11:22.822Z,14.68
2018-05-15T22:14:02.565Z,15.01
2018-05-15T22:16:49.857Z,15.12
2018-05-15T22:19:35.982Z,15.20
2018-05-15T22:22:14.628Z,15.32
2018-05-15T22:24:42.707Z,15.43
2018-05-15T22:27:11.041Z,15.56
2018-05-15T22:29:39.385Z,15.62
2018-05-15T22:32:09.070Z,15.67
2018-05-15T22:34:37.437Z,15.71
2018-05-15T22:37:06.365Z,15.82
2018-05-15T22:39:35.428Z,15.87
2018-05-15T22:42:04.564Z,15.79
2018-05-15T22:44:33.844Z,15.71
2018-05-15T22:47:02.182Z,15.66
2018-05-15T22:49:31.139Z,15.53
2018-05-15T22:51:59.486Z,15.45
2018-05-15T22:54:27.868Z,15.22
2018-05-15T22:56:56.230Z,15.09
2018-05-15T22:59:24.767Z,14.97
2018-05-15T23:01:53.917Z,15.20
2018-05-15T23:04:22.644Z,15.09
2018-05-15T23:06:50.968Z,15.06
2018-05-15T23:09:19.407Z,14.99
2018-05-15T23:11:47.753Z,14.83
2018-05-15T23:14:16.427Z,14.73
2018-05-15T23:16:45.672Z,14.81
2018-05-15T23:19:15.234Z,14.77
2018-05-15T23:21:44.800Z,14.69
2018-05-15T23:24:13.232Z,14.72
2018-05-15T23:26:41.569Z,14.53
2018-05-15T23:29:09.974Z,14.63
2018-05-15T23:31:38.307Z,14.54
2018-05-15T23:34:07.509Z,14.43
2018-05-15T23:36:36.717Z,14.41
2018-05-15T23:39:06.641Z,14.32
2018-05-15T23:41:34.977Z,14.41
2018-05-15T23:44:03.821Z,14.38
2018-05-15T23:46:32.254Z,14.34
2018-05-15T23:49:01.318Z,14.27
2018-05-15T23:51:29.676Z,14.35
2018-05-15T23:53:58.011Z,14.18
2018-05-15T23:56:27.174Z,14.11
2018-05-15T23:58:55.498Z,14.19
